sensor_id;sensor_type;location;lat;lon;timestamp;P1;durP1;ratioP1;P2;durP2;ratioP2
3819;SDS011;1925;51.356;9.530;2022-09-06T00:00:02;4.47;;;4.13;;
3819;SDS011;1925;51.356;9.530;2022-09-06T00:02:32;3.80;;;3.50;;
3819;SDS011;1925;51.356;9.530;2022-09-06T00:04:58;19.43;;;4.30;;
3819;SDS011;1925;51.356;9.530;2022-09-06T00:07:24;4.30;;;3.90;;
3819;SDS011;1925;51.356;9.530;2022-09-06T00:09:51;3.97;;;3.60;;
3819;SDS011;1925;51.356;9.530;2022-09-06T00:12:17;10.10;;;3.87;;
3819;SDS011;1925;51.356;9.530;2022-09-06T00:14:43;11.83;;;4.50;;
3819;SDS011;1925;51.356;9.530;2022-09-06T00:17:09;6.47;;;3.70;;
3819;SDS011;1925;51.356;9.530;2022-09-06T00:19:35;4.10;;;3.73;;
3819;SDS011;1925;51.356;9.530;2022-09-06T00:22:01;3.73;;;3.47;;
3819;SDS011;1925;51.356;9.530;2022-09-06T00:24:27;5.57;;;3.83;;
3819;SDS011;1925;51.356;9.530;2022-09-06T00:26:53;3.50;;;3.30;;
3819;SDS011;1925;51.356;9.530;2022-09-06T00:29:19;4.27;;;3.83;;
3819;SDS011;1925;51.356;9.530;2022-09-06T00:31:44;5.60;;;4.13;;
3819;SDS011;1925;51.356;9.530;2022-09-06T00:34:11;4.07;;;3.77;;
3819;SDS011;1925;51.356;9.530;2022-09-06T00:36:36;6.37;;;4.13;;
3819;SDS011;1925;51.356;9.530;2022-09-06T00:39:03;4.73;;;4.33;;
3819;SDS011;1925;51.356;9.530;2022-09-06T00:41:29;4.20;;;3.90;;
3819;SDS011;1925;51.356;9.530;2022-09-06T00:43:55;5.63;;;4.03;;
3819;SDS011;1925;51.356;9.530;2022-09-06T00:46:22;4.53;;;4.23;;
3819;SDS011;1925;51.356;9.530;2022-09-06T00:48:49;4.23;;;3.93;;
3819;SDS011;1925;51.356;9.530;2022-09-06T00:51:17;4.80;;;4.43;;
3819;SDS011;1925;51.356;9.530;2022-09-06T00:53:45;4.10;;;3.80;;
3819;SDS011;1925;51.356;9.530;2022-09-06T00:56:11;4.50;;;4.10;;
3819;SDS011;1925;51.356;9.530;2022-09-06T00:58:37;3.97;;;3.67;;
3819;SDS011;1925;51.356;9.530;2022-09-06T01:01:03;4.50;;;4.20;;
3819;SDS011;1925;51.356;9.530;2022-09-06T01:03:30;4.40;;;4.10;;
3819;SDS011;1925;51.356;9.530;2022-09-06T01:06:05;4.80;;;4.40;;
3819;SDS011;1925;51.356;9.530;2022-09-06T01:16:24;5.57;;;4.20;;
3819;SDS011;1925;51.356;9.530;2022-09-06T01:19:20;4.80;;;4.50;;
3819;SDS011;1925;51.356;9.530;2022-09-06T01:30:04;6.20;;;4.20;;
3819;SDS011;1925;51.356;9.530;2022-09-06T01:35:17;5.93;;;4.50;;
3819;SDS011;1925;51.356;9.530;2022-09-06T01:37:46;4.13;;;3.80;;
3819;SDS011;1925;51.356;9.530;2022-09-06T01:40:12;3.83;;;3.53;;
3819;SDS011;1925;51.356;9.530;2022-09-06T01:42:38;5.43;;;4.70;;
3819;SDS011;1925;51.356;9.530;2022-09-06T01:45:09;4.37;;;4.07;;
3819;SDS011;1925;51.356;9.530;2022-09-06T01:52:37;18.90;;;4.90;;
3819;SDS011;1925;51.356;9.530;2022-09-06T01:55:17;3.80;;;3.40;;
3819;SDS011;1925;51.356;9.530;2022-09-06T01:57:54;4.63;;;4.27;;
3819;SDS011;1925;51.356;9.530;2022-09-06T02:00:22;4.60;;;4.30;;
3819;SDS011;1925;51.356;9.530;2022-09-06T02:02:56;4.90;;;4.50;;
3819;SDS011;1925;51.356;9.530;2022-09-06T02:07:51;4.87;;;4.37;;
3819;SDS011;1925;51.356;9.530;2022-09-06T02:10:33;4.97;;;4.47;;
3819;SDS011;1925;51.356;9.530;2022-09-06T02:13:01;8.93;;;4.83;;
3819;SDS011;1925;51.356;9.530;2022-09-06T02:15:30;6.20;;;4.93;;
3819;SDS011;1925;51.356;9.530;2022-09-06T02:17:58;5.37;;;4.87;;
3819;SDS011;1925;51.356;9.530;2022-09-06T02:20:27;6.40;;;4.40;;
3819;SDS011;1925;51.356;9.530;2022-09-06T02:22:55;5.70;;;4.10;;
3819;SDS011;1925;51.356;9.530;2022-09-06T02:25:23;5.57;;;5.07;;
3819;SDS011;1925;51.356;9.530;2022-09-06T02:27:51;5.10;;;4.70;;
3819;SDS011;1925;51.356;9.530;2022-09-06T02:30:17;4.47;;;3.97;;
3819;SDS011;1925;51.356;9.530;2022-09-06T02:32:45;10.43;;;4.73;;
3819;SDS011;1925;51.356;9.530;2022-09-06T02:35:14;5.93;;;5.27;;
3819;SDS011;1925;51.356;9.530;2022-09-06T02:37:41;4.70;;;4.40;;
3819;SDS011;1925;51.356;9.530;2022-09-06T02:40:08;5.67;;;5.10;;
3819;SDS011;1925;51.356;9.530;2022-09-06T02:42:34;5.27;;;4.80;;
3819;SDS011;1925;51.356;9.530;2022-09-06T02:45:00;5.40;;;5.00;;
3819;SDS011;1925;51.356;9.530;2022-09-06T02:47:26;6.60;;;4.83;;
3819;SDS011;1925;51.356;9.530;2022-09-06T02:49:52;5.30;;;4.80;;
3819;SDS011;1925;51.356;9.530;2022-09-06T02:52:18;5.10;;;4.70;;
3819;SDS011;1925;51.356;9.530;2022-09-06T02:54:44;4.30;;;4.00;;
3819;SDS011;1925;51.356;9.530;2022-09-06T02:57:11;5.60;;;5.10;;
3819;SDS011;1925;51.356;9.530;2022-09-06T02:59:36;4.97;;;4.53;;
3819;SDS011;1925;51.356;9.530;2022-09-06T03:02:02;7.00;;;4.60;;
3819;SDS011;1925;51.356;9.530;2022-09-06T03:04:28;5.20;;;4.80;;
3819;SDS011;1925;51.356;9.530;2022-09-06T03:06:55;4.90;;;4.50;;
3819;SDS011;1925;51.356;9.530;2022-09-06T03:09:21;5.83;;;4.80;;
3819;SDS011;1925;51.356;9.530;2022-09-06T03:11:47;5.13;;;4.73;;
3819;SDS011;1925;51.356;9.530;2022-09-06T03:14:13;4.77;;;4.43;;
3819;SDS011;1925;51.356;9.530;2022-09-06T03:16:40;5.10;;;4.60;;
3819;SDS011;1925;51.356;9.530;2022-09-06T03:19:06;5.27;;;4.80;;
3819;SDS011;1925;51.356;9.530;2022-09-06T03:21:32;5.63;;;4.77;;
3819;SDS011;1925;51.356;9.530;2022-09-06T03:23:58;4.87;;;4.47;;
3819;SDS011;1925;51.356;9.530;2022-09-06T03:26:24;4.53;;;4.00;;
3819;SDS011;1925;51.356;9.530;2022-09-06T03:28:51;4.83;;;4.47;;
3819;SDS011;1925;51.356;9.530;2022-09-06T03:31:17;5.97;;;4.90;;
3819;SDS011;1925;51.356;9.530;2022-09-06T03:33:43;4.80;;;4.40;;
3819;SDS011;1925;51.356;9.530;2022-09-06T03:36:09;5.10;;;4.70;;
3819;SDS011;1925;51.356;9.530;2022-09-06T03:38:35;5.30;;;4.83;;
3819;SDS011;1925;51.356;9.530;2022-09-06T03:41:01;9.67;;;5.30;;
3819;SDS011;1925;51.356;9.530;2022-09-06T03:43:27;6.57;;;5.40;;
3819;SDS011;1925;51.356;9.530;2022-09-06T03:45:54;5.87;;;5.27;;
3819;SDS011;1925;51.356;9.530;2022-09-06T03:48:24;5.30;;;4.90;;
3819;SDS011;1925;51.356;9.530;2022-09-06T03:50:52;5.30;;;4.80;;
3819;SDS011;1925;51.356;9.530;2022-09-06T03:53:18;6.37;;;4.80;;
3819;SDS011;1925;51.356;9.530;2022-09-06T03:55:45;5.43;;;4.93;;
3819;SDS011;1925;51.356;9.530;2022-09-06T03:58:11;5.40;;;4.60;;
3819;SDS011;1925;51.356;9.530;2022-09-06T04:00:38;7.63;;;5.73;;
3819;SDS011;1925;51.356;9.530;2022-09-06T04:03:04;5.87;;;5.37;;
3819;SDS011;1925;51.356;9.530;2022-09-06T04:05:30;5.73;;;5.20;;
3819;SDS011;1925;51.356;9.530;2022-09-06T04:07:56;10.90;;;5.73;;
3819;SDS011;1925;51.356;9.530;2022-09-06T04:10:22;5.40;;;5.00;;
3819;SDS011;1925;51.356;9.530;2022-09-06T04:12:48;5.13;;;4.60;;
3819;SDS011;1925;51.356;9.530;2022-09-06T04:15:14;7.70;;;5.57;;
3819;SDS011;1925;51.356;9.530;2022-09-06T04:17:44;7.77;;;5.07;;
3819;SDS011;1925;51.356;9.530;2022-09-06T04:20:10;5.87;;;5.33;;
3819;SDS011;1925;51.356;9.530;2022-09-06T04:22:36;6.17;;;5.10;;
3819;SDS011;1925;51.356;9.530;2022-09-06T04:25:02;5.60;;;5.10;;
3819;SDS011;1925;51.356;9.530;2022-09-06T04:27:28;4.83;;;4.43;;
3819;SDS011;1925;51.356;9.530;2022-09-06T04:29:54;6.80;;;5.27;;
3819;SDS011;1925;51.356;9.530;2022-09-06T04:32:21;5.27;;;4.87;;
3819;SDS011;1925;51.356;9.530;2022-09-06T04:34:47;6.87;;;6.07;;
3819;SDS011;1925;51.356;9.530;2022-09-06T04:37:13;6.23;;;5.67;;
3819;SDS011;1925;51.356;9.530;2022-09-06T04:39:43;8.80;;;6.03;;
3819;SDS011;1925;51.356;9.530;2022-09-06T04:42:09;5.40;;;4.90;;
3819;SDS011;1925;51.356;9.530;2022-09-06T04:44:36;5.67;;;5.17;;
3819;SDS011;1925;51.356;9.530;2022-09-06T04:47:05;5.50;;;5.10;;
3819;SDS011;1925;51.356;9.530;2022-09-06T04:49:33;6.27;;;5.67;;
3819;SDS011;1925;51.356;9.530;2022-09-06T04:51:59;6.00;;;5.43;;
3819;SDS011;1925;51.356;9.530;2022-09-06T04:54:25;6.47;;;5.50;;
3819;SDS011;1925;51.356;9.530;2022-09-06T04:56:51;6.13;;;5.63;;
3819;SDS011;1925;51.356;9.530;2022-09-06T04:59:17;5.60;;;5.10;;
3819;SDS011;1925;51.356;9.530;2022-09-06T05:01:43;6.10;;;5.60;;
3819;SDS011;1925;51.356;9.530;2022-09-06T05:04:09;10.90;;;5.87;;
3819;SDS011;1925;51.356;9.530;2022-09-06T05:06:35;6.03;;;5.53;;
3819;SDS011;1925;51.356;9.530;2022-09-06T05:09:03;5.70;;;5.23;;
3819;SDS011;1925;51.356;9.530;2022-09-06T05:11:29;7.23;;;5.60;;
3819;SDS011;1925;51.356;9.530;2022-09-06T05:13:55;5.70;;;5.20;;
3819;SDS011;1925;51.356;9.530;2022-09-06T05:16:21;5.23;;;4.80;;
3819;SDS011;1925;51.356;9.530;2022-09-06T05:18:47;5.30;;;4.90;;
3819;SDS011;1925;51.356;9.530;2022-09-06T05:21:13;5.17;;;4.73;;
3819;SDS011;1925;51.356;9.530;2022-09-06T05:23:39;6.40;;;5.80;;
3819;SDS011;1925;51.356;9.530;2022-09-06T05:26:05;7.60;;;6.43;;
3819;SDS011;1925;51.356;9.530;2022-09-06T05:28:31;5.90;;;4.90;;
3819;SDS011;1925;51.356;9.530;2022-09-06T05:31:08;5.60;;;5.10;;
3819;SDS011;1925;51.356;9.530;2022-09-06T05:33:34;6.07;;;5.60;;
3819;SDS011;1925;51.356;9.530;2022-09-06T05:36:01;6.80;;;6.20;;
3819;SDS011;1925;51.356;9.530;2022-09-06T05:38:27;5.87;;;5.37;;
3819;SDS011;1925;51.356;9.530;2022-09-06T05:40:53;6.63;;;6.03;;
3819;SDS011;1925;51.356;9.530;2022-09-06T05:43:19;6.30;;;5.80;;
3819;SDS011;1925;51.356;9.530;2022-09-06T05:45:45;5.87;;;5.30;;
3819;SDS011;1925;51.356;9.530;2022-09-06T05:48:11;6.53;;;5.20;;
3819;SDS011;1925;51.356;9.530;2022-09-06T05:50:37;5.67;;;5.27;;
3819;SDS011;1925;51.356;9.530;2022-09-06T05:53:03;5.57;;;5.17;;
3819;SDS011;1925;51.356;9.530;2022-09-06T05:55:29;5.77;;;5.27;;
3819;SDS011;1925;51.356;9.530;2022-09-06T05:57:55;7.73;;;5.63;;
3819;SDS011;1925;51.356;9.530;2022-09-06T06:00:21;5.87;;;5.37;;
3819;SDS011;1925;51.356;9.530;2022-09-06T06:02:47;5.40;;;5.00;;
3819;SDS011;1925;51.356;9.530;2022-09-06T06:05:14;5.33;;;4.73;;
3819;SDS011;1925;51.356;9.530;2022-09-06T06:07:40;5.93;;;5.43;;
3819;SDS011;1925;51.356;9.530;2022-09-06T06:10:06;6.80;;;6.20;;
3819;SDS011;1925;51.356;9.530;2022-09-06T06:12:32;5.93;;;5.43;;
3819;SDS011;1925;51.356;9.530;2022-09-06T06:14:58;5.30;;;4.83;;
3819;SDS011;1925;51.356;9.530;2022-09-06T06:17:24;8.87;;;6.10;;
3819;SDS011;1925;51.356;9.530;2022-09-06T06:19:50;8.30;;;5.40;;
3819;SDS011;1925;51.356;9.530;2022-09-06T06:22:17;5.60;;;5.10;;
3819;SDS011;1925;51.356;9.530;2022-09-06T06:24:43;6.13;;;5.63;;
3819;SDS011;1925;51.356;9.530;2022-09-06T06:27:09;6.17;;;5.67;;
3819;SDS011;1925;51.356;9.530;2022-09-06T06:29:35;5.83;;;5.33;;
3819;SDS011;1925;51.356;9.530;2022-09-06T06:32:01;6.87;;;6.27;;
3819;SDS011;1925;51.356;9.530;2022-09-06T06:34:27;5.77;;;5.27;;
3819;SDS011;1925;51.356;9.530;2022-09-06T06:36:53;6.10;;;5.60;;
3819;SDS011;1925;51.356;9.530;2022-09-06T06:39:19;6.10;;;5.60;;
3819;SDS011;1925;51.356;9.530;2022-09-06T06:41:45;6.83;;;6.23;;
3819;SDS011;1925;51.356;9.530;2022-09-06T06:44:13;13.57;;;6.23;;
3819;SDS011;1925;51.356;9.530;2022-09-06T06:46:39;6.67;;;6.07;;
3819;SDS011;1925;51.356;9.530;2022-09-06T06:49:05;8.53;;;5.50;;
3819;SDS011;1925;51.356;9.530;2022-09-06T06:51:32;6.50;;;6.00;;
3819;SDS011;1925;51.356;9.530;2022-09-06T06:54:00;5.53;;;5.03;;
3819;SDS011;1925;51.356;9.530;2022-09-06T06:56:36;5.50;;;5.10;;
3819;SDS011;1925;51.356;9.530;2022-09-06T06:59:04;8.43;;;6.30;;
3819;SDS011;1925;51.356;9.530;2022-09-06T07:01:31;6.47;;;5.90;;
3819;SDS011;1925;51.356;9.530;2022-09-06T07:03:57;8.33;;;6.10;;
3819;SDS011;1925;51.356;9.530;2022-09-06T07:06:23;6.33;;;5.07;;
3819;SDS011;1925;51.356;9.530;2022-09-06T07:08:51;5.93;;;5.43;;
3819;SDS011;1925;51.356;9.530;2022-09-06T07:11:17;7.70;;;6.50;;
3819;SDS011;1925;51.356;9.530;2022-09-06T07:13:44;7.00;;;6.30;;
3819;SDS011;1925;51.356;9.530;2022-09-06T07:16:11;7.67;;;6.10;;
3819;SDS011;1925;51.356;9.530;2022-09-06T07:18:38;7.00;;;6.30;;
3819;SDS011;1925;51.356;9.530;2022-09-06T07:21:16;6.60;;;5.90;;
3819;SDS011;1925;51.356;9.530;2022-09-06T07:23:43;8.20;;;5.60;;
3819;SDS011;1925;51.356;9.530;2022-09-06T07:26:13;5.63;;;5.23;;
3819;SDS011;1925;51.356;9.530;2022-09-06T07:28:39;5.77;;;5.27;;
3819;SDS011;1925;51.356;9.530;2022-09-06T07:31:05;5.33;;;4.83;;
3819;SDS011;1925;51.356;9.530;2022-09-06T07:33:33;5.60;;;5.20;;
3819;SDS011;1925;51.356;9.530;2022-09-06T07:35:59;6.70;;;6.20;;
3819;SDS011;1925;51.356;9.530;2022-09-06T07:38:26;10.03;;;5.80;;
3819;SDS011;1925;51.356;9.530;2022-09-06T07:40:53;6.00;;;5.40;;
3819;SDS011;1925;51.356;9.530;2022-09-06T07:43:19;9.80;;;5.50;;
3819;SDS011;1925;51.356;9.530;2022-09-06T07:45:45;5.73;;;5.10;;
3819;SDS011;1925;51.356;9.530;2022-09-06T07:48:11;7.53;;;5.50;;
3819;SDS011;1925;51.356;9.530;2022-09-06T07:50:37;6.73;;;6.03;;
3819;SDS011;1925;51.356;9.530;2022-09-06T07:53:04;5.73;;;5.23;;
3819;SDS011;1925;51.356;9.530;2022-09-06T07:55:30;7.30;;;5.50;;
3819;SDS011;1925;51.356;9.530;2022-09-06T07:57:56;6.90;;;6.10;;
3819;SDS011;1925;51.356;9.530;2022-09-06T08:00:22;10.63;;;5.50;;
3819;SDS011;1925;51.356;9.530;2022-09-06T08:02:48;6.13;;;5.63;;
3819;SDS011;1925;51.356;9.530;2022-09-06T08:05:14;5.90;;;5.40;;
3819;SDS011;1925;51.356;9.530;2022-09-06T08:07:40;6.30;;;5.43;;
3819;SDS011;1925;51.356;9.530;2022-09-06T08:10:06;7.23;;;6.53;;
3819;SDS011;1925;51.356;9.530;2022-09-06T08:12:32;6.53;;;5.70;;
3819;SDS011;1925;51.356;9.530;2022-09-06T08:14:58;5.23;;;4.83;;
3819;SDS011;1925;51.356;9.530;2022-09-06T08:17:24;8.60;;;6.00;;
3819;SDS011;1925;51.356;9.530;2022-09-06T08:19:50;6.30;;;5.80;;
3819;SDS011;1925;51.356;9.530;2022-09-06T08:22:16;7.23;;;5.87;;
3819;SDS011;1925;51.356;9.530;2022-09-06T08:24:42;5.90;;;5.40;;
3819;SDS011;1925;51.356;9.530;2022-09-06T08:27:08;6.43;;;5.93;;
3819;SDS011;1925;51.356;9.530;2022-09-06T08:29:35;5.93;;;5.33;;
3819;SDS011;1925;51.356;9.530;2022-09-06T08:32:01;6.20;;;5.70;;
3819;SDS011;1925;51.356;9.530;2022-09-06T08:34:27;5.23;;;4.73;;
3819;SDS011;1925;51.356;9.530;2022-09-06T08:36:53;6.07;;;5.47;;
3819;SDS011;1925;51.356;9.530;2022-09-06T08:39:19;5.37;;;4.93;;
3819;SDS011;1925;51.356;9.530;2022-09-06T08:42:01;5.40;;;4.90;;
3819;SDS011;1925;51.356;9.530;2022-09-06T08:47:02;5.90;;;5.40;;
3819;SDS011;1925;51.356;9.530;2022-09-06T08:49:32;5.83;;;5.20;;
3819;SDS011;1925;51.356;9.530;2022-09-06T08:59:25;5.73;;;5.23;;
3819;SDS011;1925;51.356;9.530;2022-09-06T09:01:58;6.40;;;5.80;;
3819;SDS011;1925;51.356;9.530;2022-09-06T09:04:28;8.40;;;5.40;;
3819;SDS011;1925;51.356;9.530;2022-09-06T09:06:59;6.87;;;5.67;;
3819;SDS011;1925;51.356;9.530;2022-09-06T09:09:27;6.13;;;5.20;;
3819;SDS011;1925;51.356;9.530;2022-09-06T09:11:54;6.43;;;5.83;;
3819;SDS011;1925;51.356;9.530;2022-09-06T09:14:32;11.60;;;6.73;;
3819;SDS011;1925;51.356;9.530;2022-09-06T09:17:14;6.10;;;5.50;;
3819;SDS011;1925;51.356;9.530;2022-09-06T09:19:44;8.33;;;5.53;;
3819;SDS011;1925;51.356;9.530;2022-09-06T09:22:10;5.83;;;5.23;;
3819;SDS011;1925;51.356;9.530;2022-09-06T09:24:37;6.13;;;5.40;;
3819;SDS011;1925;51.356;9.530;2022-09-06T09:27:07;6.20;;;5.60;;
3819;SDS011;1925;51.356;9.530;2022-09-06T09:35:17;7.43;;;5.60;;
3819;SDS011;1925;51.356;9.530;2022-09-06T09:37:43;7.67;;;5.77;;
3819;SDS011;1925;51.356;9.530;2022-09-06T09:40:17;5.87;;;5.27;;
3819;SDS011;1925;51.356;9.530;2022-09-06T09:42:53;8.33;;;5.30;;
3819;SDS011;1925;51.356;9.530;2022-09-06T09:47:45;9.23;;;5.70;;
3819;SDS011;1925;51.356;9.530;2022-09-06T09:50:44;8.60;;;4.90;;
3819;SDS011;1925;51.356;9.530;2022-09-06T09:53:10;9.37;;;5.27;;
3819;SDS011;1925;51.356;9.530;2022-09-06T09:55:37;6.70;;;4.47;;
3819;SDS011;1925;51.356;9.530;2022-09-06T09:58:03;7.03;;;5.13;;
3819;SDS011;1925;51.356;9.530;2022-09-06T10:02:58;5.67;;;5.27;;
3819;SDS011;1925;51.356;9.530;2022-09-06T10:05:25;5.50;;;5.10;;
3819;SDS011;1925;51.356;9.530;2022-09-06T10:07:55;5.10;;;4.70;;
3819;SDS011;1925;51.356;9.530;2022-09-06T10:10:25;6.10;;;5.10;;
3819;SDS011;1925;51.356;9.530;2022-09-06T10:13:34;8.67;;;4.73;;
3819;SDS011;1925;51.356;9.530;2022-09-06T10:15:41;6.97;;;4.80;;
3819;SDS011;1925;51.356;9.530;2022-09-06T10:20:49;5.20;;;4.70;;
3819;SDS011;1925;51.356;9.530;2022-09-06T10:23:23;5.43;;;5.00;;
3819;SDS011;1925;51.356;9.530;2022-09-06T10:26:03;6.27;;;5.50;;
3819;SDS011;1925;51.356;9.530;2022-09-06T10:28:32;5.40;;;4.77;;
3819;SDS011;1925;51.356;9.530;2022-09-06T10:33:40;7.90;;;4.80;;
3819;SDS011;1925;51.356;9.530;2022-09-06T10:36:08;5.10;;;4.60;;
3819;SDS011;1925;51.356;9.530;2022-09-06T10:38:54;5.73;;;5.10;;
3819;SDS011;1925;51.356;9.530;2022-09-06T10:41:31;5.70;;;4.40;;
3819;SDS011;1925;51.356;9.530;2022-09-06T10:44:08;5.97;;;5.10;;
3819;SDS011;1925;51.356;9.530;2022-09-06T10:46:36;5.40;;;5.00;;
3819;SDS011;1925;51.356;9.530;2022-09-06T10:49:02;5.70;;;5.10;;
3819;SDS011;1925;51.356;9.530;2022-09-06T10:51:45;4.80;;;4.40;;
3819;SDS011;1925;51.356;9.530;2022-09-06T10:54:15;7.00;;;5.50;;
3819;SDS011;1925;51.356;9.530;2022-09-06T10:56:58;4.67;;;4.30;;
3819;SDS011;1925;51.356;9.530;2022-09-06T11:04:44;8.73;;;5.00;;
3819;SDS011;1925;51.356;9.530;2022-09-06T11:09:40;4.90;;;4.23;;
3819;SDS011;1925;51.356;9.530;2022-09-06T11:12:09;5.50;;;4.07;;
3819;SDS011;1925;51.356;9.530;2022-09-06T11:14:37;4.47;;;3.97;;
3819;SDS011;1925;51.356;9.530;2022-09-06T11:17:05;3.87;;;3.60;;
3819;SDS011;1925;51.356;9.530;2022-09-06T11:19:39;4.30;;;3.90;;
3819;SDS011;1925;51.356;9.530;2022-09-06T11:22:11;4.37;;;3.33;;
3819;SDS011;1925;51.356;9.530;2022-09-06T11:24:54;9.13;;;4.60;;
3819;SDS011;1925;51.356;9.530;2022-09-06T11:29:56;3.53;;;3.23;;
3819;SDS011;1925;51.356;9.530;2022-09-06T11:32:26;4.17;;;3.63;;
3819;SDS011;1925;51.356;9.530;2022-09-06T11:34:54;4.13;;;3.80;;
3819;SDS011;1925;51.356;9.530;2022-09-06T11:37:34;6.30;;;3.67;;
3819;SDS011;1925;51.356;9.530;2022-09-06T11:40:11;5.20;;;3.97;;
3819;SDS011;1925;51.356;9.530;2022-09-06T11:45:14;4.63;;;3.77;;
3819;SDS011;1925;51.356;9.530;2022-09-06T11:47:48;4.80;;;3.77;;
3819;SDS011;1925;51.356;9.530;2022-09-06T11:52:52;5.37;;;3.57;;
3819;SDS011;1925;51.356;9.530;2022-09-06T11:55:22;6.57;;;4.10;;
3819;SDS011;1925;51.356;9.530;2022-09-06T11:57:52;7.83;;;2.50;;
3819;SDS011;1925;51.356;9.530;2022-09-06T12:00:20;2.93;;;2.40;;
3819;SDS011;1925;51.356;9.530;2022-09-06T12:02:48;3.10;;;2.60;;
3819;SDS011;1925;51.356;9.530;2022-09-06T12:12:53;4.43;;;3.83;;
3819;SDS011;1925;51.356;9.530;2022-09-06T12:15:27;4.53;;;2.40;;
3819;SDS011;1925;51.356;9.530;2022-09-06T12:17:53;3.00;;;2.77;;
3819;SDS011;1925;51.356;9.530;2022-09-06T12:23:04;6.20;;;2.70;;
3819;SDS011;1925;51.356;9.530;2022-09-06T12:28:20;3.30;;;2.50;;
3819;SDS011;1925;51.356;9.530;2022-09-06T12:30:47;2.40;;;2.17;;
3819;SDS011;1925;51.356;9.530;2022-09-06T12:36:18;2.43;;;2.23;;
3819;SDS011;1925;51.356;9.530;2022-09-06T12:38:56;4.20;;;1.77;;
3819;SDS011;1925;51.356;9.530;2022-09-06T12:41:23;2.53;;;2.33;;
3819;SDS011;1925;51.356;9.530;2022-09-06T12:43:50;2.60;;;1.47;;
3819;SDS011;1925;51.356;9.530;2022-09-06T12:46:17;2.97;;;1.97;;
3819;SDS011;1925;51.356;9.530;2022-09-06T12:48:43;1.73;;;1.60;;
3819;SDS011;1925;51.356;9.530;2022-09-06T12:51:23;2.20;;;2.03;;
3819;SDS011;1925;51.356;9.530;2022-09-06T12:53:57;2.80;;;1.90;;
3819;SDS011;1925;51.356;9.530;2022-09-06T12:56:24;4.47;;;1.87;;
3819;SDS011;1925;51.356;9.530;2022-09-06T12:58:51;3.13;;;1.70;;
3819;SDS011;1925;51.356;9.530;2022-09-06T13:01:25;7.40;;;2.13;;
3819;SDS011;1925;51.356;9.530;2022-09-06T13:06:21;3.00;;;1.60;;
3819;SDS011;1925;51.356;9.530;2022-09-06T13:08:49;2.40;;;1.80;;
3819;SDS011;1925;51.356;9.530;2022-09-06T13:11:17;1.60;;;1.50;;
3819;SDS011;1925;51.356;9.530;2022-09-06T13:13:46;2.70;;;2.00;;
3819;SDS011;1925;51.356;9.530;2022-09-06T13:16:17;2.10;;;2.00;;
3819;SDS011;1925;51.356;9.530;2022-09-06T13:18:43;1.90;;;1.63;;
3819;SDS011;1925;51.356;9.530;2022-09-06T13:21:10;3.10;;;1.63;;
3819;SDS011;1925;51.356;9.530;2022-09-06T13:23:44;1.93;;;1.70;;
3819;SDS011;1925;51.356;9.530;2022-09-06T13:26:11;1.70;;;1.60;;
3819;SDS011;1925;51.356;9.530;2022-09-06T13:28:37;1.90;;;1.80;;
3819;SDS011;1925;51.356;9.530;2022-09-06T13:33:37;1.93;;;1.70;;
3819;SDS011;1925;51.356;9.530;2022-09-06T13:41:03;2.93;;;1.77;;
3819;SDS011;1925;51.356;9.530;2022-09-06T13:43:30;4.70;;;1.90;;
3819;SDS011;1925;51.356;9.530;2022-09-06T13:46:02;1.87;;;1.77;;
3819;SDS011;1925;51.356;9.530;2022-09-06T13:48:29;2.10;;;2.00;;
3819;SDS011;1925;51.356;9.530;2022-09-06T13:50:55;2.20;;;2.00;;
3819;SDS011;1925;51.356;9.530;2022-09-06T13:53:22;3.83;;;1.37;;
3819;SDS011;1925;51.356;9.530;2022-09-06T13:55:48;1.77;;;1.67;;
3819;SDS011;1925;51.356;9.530;2022-09-06T13:58:15;1.57;;;1.47;;
3819;SDS011;1925;51.356;9.530;2022-09-06T14:00:41;4.03;;;1.63;;
3819;SDS011;1925;51.356;9.530;2022-09-06T14:03:07;3.10;;;1.93;;
3819;SDS011;1925;51.356;9.530;2022-09-06T14:05:33;3.73;;;2.40;;
3819;SDS011;1925;51.356;9.530;2022-09-06T14:08:03;1.87;;;1.77;;
3819;SDS011;1925;51.356;9.530;2022-09-06T14:10:29;1.87;;;1.50;;
3819;SDS011;1925;51.356;9.530;2022-09-06T14:12:54;1.77;;;1.50;;
3819;SDS011;1925;51.356;9.530;2022-09-06T14:15:20;2.37;;;1.53;;
3819;SDS011;1925;51.356;9.530;2022-09-06T14:17:47;1.73;;;1.50;;
3819;SDS011;1925;51.356;9.530;2022-09-06T14:20:13;1.63;;;1.53;;
3819;SDS011;1925;51.356;9.530;2022-09-06T14:22:39;2.83;;;1.60;;
3819;SDS011;1925;51.356;9.530;2022-09-06T14:25:05;1.67;;;1.57;;
3819;SDS011;1925;51.356;9.530;2022-09-06T14:27:31;1.77;;;1.67;;
3819;SDS011;1925;51.356;9.530;2022-09-06T14:29:59;2.07;;;1.70;;
3819;SDS011;1925;51.356;9.530;2022-09-06T14:32:25;4.03;;;1.60;;
3819;SDS011;1925;51.356;9.530;2022-09-06T14:34:51;3.73;;;1.60;;
3819;SDS011;1925;51.356;9.530;2022-09-06T14:37:17;3.60;;;1.80;;
3819;SDS011;1925;51.356;9.530;2022-09-06T14:39:43;1.70;;;1.60;;
3819;SDS011;1925;51.356;9.530;2022-09-06T14:42:09;2.03;;;1.93;;
3819;SDS011;1925;51.356;9.530;2022-09-06T14:44:35;1.67;;;1.50;;
3819;SDS011;1925;51.356;9.530;2022-09-06T14:47:01;2.40;;;1.57;;
3819;SDS011;1925;51.356;9.530;2022-09-06T14:49:27;2.00;;;1.80;;
3819;SDS011;1925;51.356;9.530;2022-09-06T14:51:53;1.67;;;1.57;;
3819;SDS011;1925;51.356;9.530;2022-09-06T14:54:19;2.30;;;2.10;;
3819;SDS011;1925;51.356;9.530;2022-09-06T14:56:46;1.60;;;1.50;;
3819;SDS011;1925;51.356;9.530;2022-09-06T14:59:12;3.50;;;2.03;;
3819;SDS011;1925;51.356;9.530;2022-09-06T15:01:38;2.03;;;1.47;;
3819;SDS011;1925;51.356;9.530;2022-09-06T15:04:05;3.30;;;2.00;;
3819;SDS011;1925;51.356;9.530;2022-09-06T15:06:32;1.60;;;1.50;;
3819;SDS011;1925;51.356;9.530;2022-09-06T15:08:58;1.80;;;1.70;;
3819;SDS011;1925;51.356;9.530;2022-09-06T15:13:54;2.43;;;2.03;;
3819;SDS011;1925;51.356;9.530;2022-09-06T15:16:20;3.20;;;1.67;;
3819;SDS011;1925;51.356;9.530;2022-09-06T15:18:46;1.70;;;1.60;;
3819;SDS011;1925;51.356;9.530;2022-09-06T15:21:13;2.60;;;1.73;;
3819;SDS011;1925;51.356;9.530;2022-09-06T15:23:40;2.17;;;1.87;;
3819;SDS011;1925;51.356;9.530;2022-09-06T15:26:06;2.63;;;1.63;;
3819;SDS011;1925;51.356;9.530;2022-09-06T15:28:36;3.60;;;1.67;;
3819;SDS011;1925;51.356;9.530;2022-09-06T15:31:03;5.43;;;1.87;;
3819;SDS011;1925;51.356;9.530;2022-09-06T15:33:30;2.80;;;1.80;;
3819;SDS011;1925;51.356;9.530;2022-09-06T15:35:56;2.83;;;1.90;;
3819;SDS011;1925;51.356;9.530;2022-09-06T15:38:24;6.63;;;2.07;;
3819;SDS011;1925;51.356;9.530;2022-09-06T15:40:50;3.10;;;1.67;;
3819;SDS011;1925;51.356;9.530;2022-09-06T15:43:16;2.90;;;1.57;;
3819;SDS011;1925;51.356;9.530;2022-09-06T15:45:46;2.00;;;1.67;;
3819;SDS011;1925;51.356;9.530;2022-09-06T15:48:13;1.63;;;1.53;;
3819;SDS011;1925;51.356;9.530;2022-09-06T15:50:40;2.53;;;1.50;;
3819;SDS011;1925;51.356;9.530;2022-09-06T15:53:06;1.77;;;1.67;;
3819;SDS011;1925;51.356;9.530;2022-09-06T15:55:32;1.73;;;1.43;;
3819;SDS011;1925;51.356;9.530;2022-09-06T15:58:16;2.37;;;1.60;;
3819;SDS011;1925;51.356;9.530;2022-09-06T16:00:42;3.70;;;2.03;;
3819;SDS011;1925;51.356;9.530;2022-09-06T16:03:09;2.50;;;1.50;;
3819;SDS011;1925;51.356;9.530;2022-09-06T16:05:35;2.37;;;1.80;;
3819;SDS011;1925;51.356;9.530;2022-09-06T16:08:01;2.70;;;1.83;;
3819;SDS011;1925;51.356;9.530;2022-09-06T16:10:27;3.00;;;1.53;;
3819;SDS011;1925;51.356;9.530;2022-09-06T16:12:53;1.43;;;1.33;;
3819;SDS011;1925;51.356;9.530;2022-09-06T16:15:19;3.10;;;1.93;;
3819;SDS011;1925;51.356;9.530;2022-09-06T16:17:46;1.67;;;1.57;;
3819;SDS011;1925;51.356;9.530;2022-09-06T16:20:12;2.17;;;1.60;;
3819;SDS011;1925;51.356;9.530;2022-09-06T16:22:38;2.07;;;1.50;;
3819;SDS011;1925;51.356;9.530;2022-09-06T16:25:04;1.83;;;1.70;;
3819;SDS011;1925;51.356;9.530;2022-09-06T16:27:30;4.13;;;2.43;;
3819;SDS011;1925;51.356;9.530;2022-09-06T16:29:56;3.00;;;2.00;;
3819;SDS011;1925;51.356;9.530;2022-09-06T16:32:22;2.50;;;1.67;;
3819;SDS011;1925;51.356;9.530;2022-09-06T16:34:48;1.77;;;1.67;;
3819;SDS011;1925;51.356;9.530;2022-09-06T16:37:14;1.93;;;1.83;;
3819;SDS011;1925;51.356;9.530;2022-09-06T16:39:40;2.03;;;1.70;;
3819;SDS011;1925;51.356;9.530;2022-09-06T16:42:07;2.30;;;2.10;;
3819;SDS011;1925;51.356;9.530;2022-09-06T16:44:33;3.77;;;1.93;;
3819;SDS011;1925;51.356;9.530;2022-09-06T16:46:59;2.43;;;2.33;;
3819;SDS011;1925;51.356;9.530;2022-09-06T16:49:27;3.00;;;2.10;;
3819;SDS011;1925;51.356;9.530;2022-09-06T16:51:53;3.40;;;2.10;;
3819;SDS011;1925;51.356;9.530;2022-09-06T16:54:20;3.73;;;1.90;;